»·PEaware :: N505TB KSNA-KOXR

N505TB :: KSNA-KOXR

FLIGHT INFORMATION

Flight Status: Arrived
Operator: Privately registered:
United States
More flights under this callsign
Pilot: Jeremy D. (22782)
Aircraft: SOCATA TBM-900
(TBM9)
More flights by this aircraft type
Origin: KSNA John Wayne-Orange Co
United States
Destination: KOXR Oxnard
United States
More flights between these airports :: More routes between these airports
Route: +SLI V23 LAX VNY
File this flight plan on PilotEdge
Remarks: RMK / SIMBRIEF
Altitude:
(Current/Filed)
6,000ft
Speed:
(Current/Filed)
260kts
Departed: 09-Nov-19 04:35 PM
Arrived: 09-Nov-19 05:09 PM
Distance/Time
Traveled:
74nm/0:33
Distance/Time
To Go:
Arrived

Flight Plot

Page will automatically refresh every two minutes.


Map Options




Map Legend


Flown Route
Filed Route
Departure Airport
Arrival Airport
Navaid (VOR, NDB)
Fix

Horizontal Profiles

Position Reports

Time Latitude Longitude Heading Altitude Ground
Speed
09-Nov-19 16:19 33.672357 -117.873340 209 59ft 0kts
09-Nov-19 16:20 33.672357 -117.873340 209 59ft 0kts
09-Nov-19 16:21 33.672357 -117.873340 209 59ft 0kts
09-Nov-19 16:22 33.672357 -117.873340 209 59ft 0kts
09-Nov-19 16:23 33.672357 -117.873340 209 59ft 0kts
09-Nov-19 16:24 33.672357 -117.873340 209 59ft 0kts
09-Nov-19 16:25 33.672357 -117.873340 209 59ft 0kts
09-Nov-19 16:26 33.672357 -117.873341 209 59ft 0kts
09-Nov-19 16:27 33.672357 -117.873341 209 59ft 0kts
09-Nov-19 16:28 33.672357 -117.873340 209 59ft 0kts
09-Nov-19 16:29 33.672290 -117.872486 23 59ft 15kts
09-Nov-19 16:30 33.676215 -117.870059 28 59ft 11kts
09-Nov-19 16:31 33.679417 -117.868053 25 59ft 15kts
09-Nov-19 16:32 33.681254 -117.866587 108 59ft 0kts
09-Nov-19 16:33 33.680913 -117.865797 135 59ft 14kts
09-Nov-19 16:34 33.662819 -117.882789 241 998ft 124kts
09-Nov-19 16:35 33.647495 -117.919530 241 2132ft 133kts
09-Nov-19 16:36 33.630653 -117.960721 241 3967ft 139kts
09-Nov-19 16:37 33.619139 -118.004048 295 6004ft 157kts
09-Nov-19 16:38 33.652781 -118.040592 314 5994ft 167kts
09-Nov-19 16:39 33.683978 -118.081960 311 5991ft 168kts
09-Nov-19 16:40 33.714825 -118.124828 310 5992ft 168kts
09-Nov-19 16:41 33.745482 -118.167762 309 5994ft 169kts
09-Nov-19 16:42 33.775520 -118.209920 309 5993ft 169kts
09-Nov-19 16:43 33.805827 -118.252510 308 5989ft 169kts
09-Nov-19 16:44 33.835442 -118.294339 312 5989ft 162kts
09-Nov-19 16:45 33.862987 -118.333039 312 5994ft 157kts
09-Nov-19 16:46 33.890226 -118.371417 312 5996ft 156kts
09-Nov-19 16:47 33.915874 -118.407612 312 5998ft 156kts
09-Nov-19 16:48 33.950875 -118.435307 349 6005ft 162kts
09-Nov-19 16:49 33.997213 -118.445107 350 6001ft 170kts
09-Nov-19 16:50 34.043633 -118.454672 350 5991ft 170kts
09-Nov-19 16:51 34.090258 -118.464247 350 5889ft 172kts
09-Nov-19 16:52 34.122557 -118.472983 321 5205ft 177kts
09-Nov-19 16:53 34.134716 -118.524954 282 4972ft 140kts
09-Nov-19 16:54 34.142640 -118.577862 282 5003ft 174kts
09-Nov-19 16:55 34.151520 -118.636543 282 4994ft 176kts
09-Nov-19 16:56 34.159943 -118.692822 281 4998ft 174kts
09-Nov-19 16:57 34.168302 -118.749001 281 5001ft 174kts
09-Nov-19 16:58 34.178429 -118.805560 281 5004ft 177kts
09-Nov-19 16:59 34.190916 -118.864745 281 4372ft 193kts
09-Nov-19 17:00 34.197844 -118.918901 266 3988ft 142kts
09-Nov-19 17:01 34.199303 -118.964270 269 3614ft 133kts
09-Nov-19 17:02 34.199437 -119.005117 271 3197ft 129kts
09-Nov-19 17:03 34.199697 -119.047553 270 2519ft 122kts
09-Nov-19 17:04 34.199957 -119.088125 270 1861ft 117kts
09-Nov-19 17:05 34.200210 -119.124250 270 1309ft 99kts
09-Nov-19 17:06 34.200436 -119.157233 269 730ft 97kts
09-Nov-19 17:07 34.200664 -119.189288 269 206ft 90kts
09-Nov-19 17:08 34.200547 -119.207498 176 44ft 11kts
09-Nov-19 17:09 34.199743 -119.206649 88 44ft 10kts
09-Nov-19 17:10 34.199300 -119.205497 182 44ft 0kts
09-Nov-19 17:11 34.199300 -119.205497 182 44ft 0kts

Navigation Log

Ident Type
Flight plan parsing failed, navigation log unavailable